Time;durP1;ratioP1;P1;durP2;ratioP2;P2;SDS_P1;SDS_P2;PMS_P1;PMS_P2;Temp;Humidity;BMP_temperature;BMP_pressure;BME280_temperature;BME280_humidity;BME280_pressure;Samples;Min_cycle;Max_cycle;Signal;HPM_P1;HPM_P2
2022/04/30 00:00:13;;;;;;;16.35;12.30;;;;;;;;;;5051953;28;20102;-85
2022/04/30 00:02:40;;;;;;;16.17;12.45;;;;;;;;;;5051770;28;20099;-85
2022/04/30 00:05:07;;;;;;;17.23;12.40;;;;;;;;;;5051920;28;20388;-85
2022/04/30 00:07:33;;;;;;;15.57;12.05;;;;;;;;;;5051710;28;20135;-85
2022/04/30 00:10:00;;;;;;;15.32;12.73;;;;;;;;;;5051544;28;20122;-84
2022/04/30 00:12:26;;;;;;;14.30;11.85;;;;;;;;;;5051570;28;20115;-84
2022/04/30 00:14:54;;;;;;;15.07;11.32;;;;;;;;;;5051505;28;20132;-84
2022/04/30 00:17:20;;;;;;;13.55;11.60;;;;;;;;;;5051544;28;20045;-85
2022/04/30 00:19:47;;;;;;;13.93;11.38;;;;;;;;;;5051071;28;20123;-84
2022/04/30 00:22:13;;;;;;;13.77;11.38;;;;;;;;;;5051702;28;20080;-83
2022/04/30 00:24:40;;;;;;;13.35;11.45;;;;;;;;;;5051439;28;20136;-84
2022/04/30 00:27:07;;;;;;;15.70;11.90;;;;;;;;;;5050131;28;20501;-84
2022/04/30 00:29:33;;;;;;;17.88;12.40;;;;;;;;;;5051657;28;20085;-85
2022/04/30 00:32:03;;;;;;;16.45;12.23;;;;;;;;;;5051577;28;20080;-85
2022/04/30 00:34:30;;;;;;;16.70;12.23;;;;;;;;;;5048340;28;20642;-84
2022/04/30 00:36:58;;;;;;;15.82;12.50;;;;;;;;;;5050581;28;20095;-84
2022/04/30 00:39:25;;;;;;;12.98;10.50;;;;;;;;;;5051192;28;20088;-85
2022/04/30 00:41:51;;;;;;;15.52;12.85;;;;;;;;;;5051290;28;20460;-85
2022/04/30 00:44:18;;;;;;;17.00;12.38;;;;;;;;;;5051233;28;20076;-85
2022/04/30 00:46:45;;;;;;;15.95;12.43;;;;;;;;;;5051554;28;20052;-85
2022/04/30 00:49:11;;;;;;;18.00;12.13;;;;;;;;;;5051256;28;20455;-85
2022/04/30 00:51:39;;;;;;;14.15;12.00;;;;;;;;;;5051256;28;20527;-85
2022/04/30 00:54:06;;;;;;;16.38;11.75;;;;;;;;;;5036988;28;20416;-85
2022/04/30 00:56:33;;;;;;;13.35;11.02;;;;;;;;;;5050191;28;20084;-86
2022/04/30 00:59:03;;;;;;;14.55;11.80;;;;;;;;;;5051245;28;20069;-86
2022/04/30 01:01:33;;;;;;;14.55;11.13;;;;;;;;;;5051066;28;20131;-86
2022/04/30 01:04:01;;;;;;;14.00;11.88;;;;;;;;;;5051251;28;20091;-86
2022/04/30 01:06:39;;;;;;;14.00;10.90;;;;;;;;;;5051928;28;20084;-86
2022/04/30 01:09:10;;;;;;;14.52;11.23;;;;;;;;;;5051382;28;20068;-86
2022/04/30 01:11:37;;;;;;;17.92;12.27;;;;;;;;;;5050904;28;20057;-86
2022/04/30 01:14:04;;;;;;;13.73;11.52;;;;;;;;;;5051050;28;20083;-86
2022/04/30 01:16:32;;;;;;;13.85;10.82;;;;;;;;;;5050924;28;20048;-86
2022/04/30 01:19:00;;;;;;;15.25;11.07;;;;;;;;;;5049819;28;20123;-86
2022/04/30 01:21:28;;;;;;;13.85;11.27;;;;;;;;;;5049689;28;20546;-86
2022/04/30 01:23:54;;;;;;;15.10;12.10;;;;;;;;;;5051190;28;20067;-86
2022/04/30 01:26:23;;;;;;;14.40;11.50;;;;;;;;;;5050864;28;20092;-87
2022/04/30 01:28:49;;;;;;;14.20;10.95;;;;;;;;;;5051149;28;20151;-88
2022/04/30 01:39:30;;;;;;;15.40;11.88;;;;;;;;;;5054349;28;20077;-87
2022/04/30 01:42:03;;;;;;;14.10;11.90;;;;;;;;;;5054137;28;20558;-86
2022/04/30 01:44:29;;;;;;;14.75;11.40;;;;;;;;;;5054464;28;20057;-86
2022/04/30 01:46:58;;;;;;;12.32;10.73;;;;;;;;;;5054142;28;20531;-86
2022/04/30 01:49:24;;;;;;;15.25;11.55;;;;;;;;;;5054423;28;20045;-86
2022/04/30 01:55:13;;;;;;;16.35;11.35;;;;;;;;;;5054113;28;20032;-87
2022/04/30 01:57:40;;;;;;;12.85;11.52;;;;;;;;;;5052579;28;20098;-86
2022/04/30 02:00:08;;;;;;;14.90;10.80;;;;;;;;;;5053800;28;20548;-86
2022/04/30 02:02:36;;;;;;;14.82;11.88;;;;;;;;;;5054141;28;20045;-87
2022/04/30 02:05:07;;;;;;;;;;;;;;;;;;5054231;28;20045;-87
2022/04/30 02:07:38;;;;;;;15.10;10.80;;;;;;;;;;5053763;28;19925;-86
2022/04/30 02:10:10;;;;;;;16.20;11.15;;;;;;;;;;5054128;28;20170;-86
2022/04/30 02:12:37;;;;;;;15.82;11.20;;;;;;;;;;5053998;28;20080;-86
2022/04/30 02:15:04;;;;;;;14.00;11.15;;;;;;;;;;5052388;28;20495;-87
2022/04/30 02:17:35;;;;;;;15.25;11.68;;;;;;;;;;5053670;28;20068;-87
2022/04/30 02:22:47;;;;;;;15.70;11.75;;;;;;;;;;5053742;28;20107;-87
2022/04/30 02:25:15;;;;;;;15.73;11.70;;;;;;;;;;5053737;28;20076;-86
2022/04/30 02:27:42;;;;;;;14.55;11.35;;;;;;;;;;5053437;28;20312;-87
2022/04/30 02:30:11;;;;;;;14.95;11.45;;;;;;;;;;5053670;28;20099;-86
2022/04/30 02:32:39;;;;;;;15.13;10.88;;;;;;;;;;5053537;28;20412;-86
2022/04/30 02:35:06;;;;;;;14.32;10.90;;;;;;;;;;5053340;28;20088;-87
2022/04/30 02:37:32;;;;;;;13.95;10.93;;;;;;;;;;5053140;28;20085;-87
2022/04/30 02:39:59;;;;;;;15.73;12.35;;;;;;;;;;5053236;28;20508;-87
2022/04/30 02:42:25;;;;;;;15.55;12.40;;;;;;;;;;5052324;28;20095;-87
2022/04/30 02:44:52;;;;;;;13.02;11.63;;;;;;;;;;5053318;28;20098;-87
2022/04/30 02:47:19;;;;;;;13.63;10.65;;;;;;;;;;5053302;28;20053;-87
2022/04/30 02:49:45;;;;;;;13.93;10.50;;;;;;;;;;5053125;28;20052;-87
2022/04/30 02:52:12;;;;;;;14.63;11.50;;;;;;;;;;5052012;28;20048;-87
2022/04/30 02:54:39;;;;;;;16.23;11.45;;;;;;;;;;5051063;28;20077;-87
2022/04/30 02:57:05;;;;;;;17.50;11.82;;;;;;;;;;5052772;28;20505;-87
2022/04/30 03:02:17;;;;;;;13.90;11.50;;;;;;;;;;5040467;28;20084;-87
2022/04/30 03:04:43;;;;;;;14.45;11.43;;;;;;;;;;5051863;28;20472;-88
2022/04/30 03:07:11;;;;;;;13.73;11.45;;;;;;;;;;5052586;28;20132;-88
2022/04/30 03:09:39;;;;;;;15.20;11.57;;;;;;;;;;5051257;28;20092;-87
2022/04/30 03:12:07;;;;;;;;;;;;;;;;;;5051676;28;20114;-87
2022/04/30 03:14:35;;;;;;;15.93;11.77;;;;;;;;;;5052784;28;20340;-87
2022/04/30 03:22:32;;;;;;;15.80;11.38;;;;;;;;;;5052728;28;20081;-85
2022/04/30 03:24:58;;;;;;;14.15;11.43;;;;;;;;;;5052559;28;20119;-87
2022/04/30 03:27:25;;;;;;;13.82;11.15;;;;;;;;;;5052197;28;20056;-87
2022/04/30 03:29:51;;;;;;;14.63;11.25;;;;;;;;;;5052308;28;20080;-87
2022/04/30 03:32:20;;;;;;;15.57;11.40;;;;;;;;;;5052232;28;20088;-87
2022/04/30 03:34:46;;;;;;;16.65;11.05;;;;;;;;;;5052082;28;20092;-86
2022/04/30 03:37:13;;;;;;;13.80;10.48;;;;;;;;;;5052051;28;20082;-88
2022/04/30 03:39:40;;;;;;;13.98;10.98;;;;;;;;;;5039027;28;20085;-86
2022/04/30 03:42:06;;;;;;;13.43;10.75;;;;;;;;;;5051690;28;20472;-87
2022/04/30 03:44:33;;;;;;;13.70;10.30;;;;;;;;;;5051953;28;20080;-86
2022/04/30 03:46:59;;;;;;;13.18;9.82;;;;;;;;;;5050786;28;20099;-88
2022/04/30 03:49:26;;;;;;;14.43;9.88;;;;;;;;;;5052003;28;20142;-88
2022/04/30 03:51:54;;;;;;;13.40;9.18;;;;;;;;;;5052118;28;20060;-87
2022/04/30 03:54:21;;;;;;;14.45;10.05;;;;;;;;;;5051615;28;20044;-87
2022/04/30 03:56:48;;;;;;;13.65;10.00;;;;;;;;;;5052111;28;20053;-87
2022/04/30 03:59:15;;;;;;;13.10;9.82;;;;;;;;;;5051558;28;20083;-87
2022/04/30 04:01:41;;;;;;;13.38;10.05;;;;;;;;;;5050498;28;20045;-87
2022/04/30 04:04:08;;;;;;;12.13;9.80;;;;;;;;;;5051817;28;20172;-87
2022/04/30 04:06:34;;;;;;;12.82;9.57;;;;;;;;;;5052195;28;20127;-87
2022/04/30 04:09:01;;;;;;;14.10;10.02;;;;;;;;;;5051500;28;20509;-87
2022/04/30 04:11:27;;;;;;;12.57;9.85;;;;;;;;;;5051890;28;20099;-87
2022/04/30 04:19:26;;;;;;;11.88;9.18;;;;;;;;;;5051343;28;20127;-87
2022/04/30 04:21:52;;;;;;;12.85;9.75;;;;;;;;;;5050585;28;20389;-87
2022/04/30 04:27:04;;;;;;;11.95;9.10;;;;;;;;;;5051467;28;20378;-87
2022/04/30 04:29:30;;;;;;;14.18;9.48;;;;;;;;;;5051565;28;20077;-88
2022/04/30 04:31:56;;;;;;;13.45;10.07;;;;;;;;;;5051366;28;20535;-87
2022/04/30 04:34:23;;;;;;;12.93;9.68;;;;;;;;;;5051507;28;20468;-88
2022/04/30 04:36:49;;;;;;;12.95;9.32;;;;;;;;;;5051274;28;20053;-86
2022/04/30 04:39:16;;;;;;;13.95;10.13;;;;;;;;;;5051176;28;20091;-87
2022/04/30 04:41:43;;;;;;;12.23;9.48;;;;;;;;;;5051424;28;20106;-87
2022/04/30 04:44:09;;;;;;;12.88;9.48;;;;;;;;;;5051214;28;20489;-87
2022/04/30 04:46:37;;;;;;;12.95;9.13;;;;;;;;;;5051501;28;20037;-87
2022/04/30 04:49:04;;;;;;;;;;;;;;;;;;5051785;28;20136;-88
2022/04/30 04:51:30;;;;;;;13.43;9.60;;;;;;;;;;5051149;28;20340;-87
2022/04/30 04:53:57;;;;;;;14.40;10.02;;;;;;;;;;5051083;28;20084;-87
2022/04/30 04:56:23;;;;;;;12.10;10.07;;;;;;;;;;5051416;28;20065;-86
2022/04/30 04:58:50;;;;;;;12.65;9.27;;;;;;;;;;5050063;28;20084;-87
2022/04/30 05:01:16;;;;;;;14.57;9.55;;;;;;;;;;5051128;28;20076;-86
2022/04/30 05:03:43;;;;;;;11.52;8.98;;;;;;;;;;5051057;28;20048;-87
2022/04/30 05:06:09;;;;;;;12.85;9.93;;;;;;;;;;5054643;28;20045;-87
2022/04/30 05:08:36;;;;;;;14.55;10.65;;;;;;;;;;5053924;28;20084;-87
2022/04/30 05:11:02;;;;;;;13.85;9.77;;;;;;;;;;5054787;28;20135;-87
2022/04/30 05:13:29;;;;;;;13.20;10.13;;;;;;;;;;5055158;28;20416;-87
2022/04/30 05:15:55;;;;;;;13.75;9.23;;;;;;;;;;5055041;28;20059;-87
2022/04/30 05:18:22;;;;;;;14.35;10.38;;;;;;;;;;5054873;28;20140;-86
2022/04/30 05:20:48;;;;;;;15.60;10.35;;;;;;;;;;5054544;28;20081;-86
2022/04/30 05:23:15;;;;;;;13.43;10.00;;;;;;;;;;5053646;28;20049;-86
2022/04/30 05:25:41;;;;;;;12.52;9.70;;;;;;;;;;5054791;28;20077;-87
2022/04/30 05:28:08;;;;;;;14.20;9.80;;;;;;;;;;5054818;28;20079;-87
2022/04/30 05:30:34;;;;;;;12.82;9.32;;;;;;;;;;5054485;28;20077;-87
2022/04/30 05:33:01;;;;;;;14.50;10.43;;;;;;;;;;5054537;28;20072;-87
2022/04/30 05:35:27;;;;;;;15.07;9.52;;;;;;;;;;5054256;28;20504;-87
2022/04/30 05:37:54;;;;;;;14.93;10.02;;;;;;;;;;5069738;28;20466;-86
2022/04/30 05:40:20;;;;;;;14.68;9.93;;;;;;;;;;5054556;28;20076;-87
2022/04/30 05:42:47;;;;;;;15.13;10.70;;;;;;;;;;5054447;28;20045;-86
2022/04/30 05:45:13;;;;;;;13.10;10.65;;;;;;;;;;5054188;28;20080;-86
2022/04/30 05:47:39;;;;;;;13.85;10.98;;;;;;;;;;5054496;28;20072;-86
2022/04/30 05:50:09;;;;;;;15.85;11.10;;;;;;;;;;5053082;28;20178;-87
2022/04/30 05:52:36;;;;;;;14.82;10.52;;;;;;;;;;5054291;28;20083;-87
2022/04/30 05:55:03;;;;;;;16.95;11.00;;;;;;;;;;5054051;28;20107;-87
2022/04/30 05:57:29;;;;;;;15.48;10.52;;;;;;;;;;5052851;28;20087;-87
2022/04/30 05:59:56;;;;;;;14.93;10.60;;;;;;;;;;5052833;28;20104;-82
2022/04/30 06:02:22;;;;;;;15.77;10.85;;;;;;;;;;5053738;28;20072;-88
2022/04/30 06:04:49;;;;;;;13.95;10.82;;;;;;;;;;5053946;28;20099;-87
2022/04/30 06:07:17;;;;;;;15.45;10.77;;;;;;;;;;5052796;28;20045;-87
2022/04/30 06:09:43;;;;;;;13.97;10.17;;;;;;;;;;5054123;28;20137;-87
2022/04/30 06:12:10;;;;;;;14.30;11.27;;;;;;;;;;5053756;28;20106;-88
2022/04/30 06:14:36;;;;;;;15.38;12.95;;;;;;;;;;5052752;28;20045;-88
2022/04/30 06:17:03;;;;;;;16.88;13.75;;;;;;;;;;5053556;28;20566;-88
2022/04/30 06:19:29;;;;;;;16.17;12.60;;;;;;;;;;5053414;28;20072;-88
2022/04/30 06:21:56;;;;;;;13.93;11.60;;;;;;;;;;5053604;28;20077;-87
2022/04/30 06:24:22;;;;;;;16.92;11.75;;;;;;;;;;5052521;28;20170;-87
2022/04/30 06:26:48;;;;;;;17.30;11.98;;;;;;;;;;5053415;28;20099;-87
2022/04/30 06:29:15;;;;;;;16.13;12.25;;;;;;;;;;5053617;28;20192;-86
2022/04/30 06:31:41;;;;;;;16.85;12.93;;;;;;;;;;5053275;28;20080;-87
2022/04/30 06:34:08;;;;;;;18.15;12.88;;;;;;;;;;5053659;28;20075;-87
2022/04/30 06:36:34;;;;;;;14.90;11.35;;;;;;;;;;5053039;28;20509;-87
2022/04/30 06:39:01;;;;;;;15.52;12.73;;;;;;;;;;5052164;28;20055;-87
2022/04/30 06:41:27;;;;;;;16.20;11.82;;;;;;;;;;5053211;28;20103;-89
2022/04/30 06:43:53;;;;;;;15.38;11.68;;;;;;;;;;5053142;28;20081;-88
2022/04/30 06:46:20;;;;;;;16.25;12.27;;;;;;;;;;5053276;28;20076;-88
2022/04/30 06:48:46;;;;;;;18.38;12.85;;;;;;;;;;5053334;28;20049;-88
2022/04/30 06:51:13;;;;;;;14.88;12.60;;;;;;;;;;5053018;28;20164;-87
2022/04/30 06:59:11;;;;;;;17.05;12.68;;;;;;;;;;5053089;28;20084;-88
2022/04/30 07:01:42;;;;;;;17.73;12.30;;;;;;;;;;5053005;28;20122;-87
2022/04/30 07:04:10;;;;;;;15.07;11.93;;;;;;;;;;5053205;28;20127;-87
2022/04/30 07:06:38;;;;;;;15.60;11.68;;;;;;;;;;5051467;28;20565;-87
2022/04/30 07:09:05;;;;;;;15.88;12.48;;;;;;;;;;5052483;28;20056;-87
2022/04/30 07:11:32;;;;;;;13.95;11.40;;;;;;;;;;5052814;28;20110;-87
2022/04/30 07:13:58;;;;;;;17.02;12.15;;;;;;;;;;5052452;28;20091;-87
2022/04/30 07:16:25;;;;;;;13.85;10.60;;;;;;;;;;5052657;28;20099;-87
2022/04/30 07:18:51;;;;;;;13.90;11.15;;;;;;;;;;5051471;28;20052;-88
2022/04/30 07:21:18;;;;;;;13.40;11.38;;;;;;;;;;5052093;28;20071;-87
2022/04/30 07:23:44;;;;;;;15.43;11.18;;;;;;;;;;5052019;28;20072;-79
2022/04/30 07:26:10;;;;;;;13.35;11.27;;;;;;;;;;5051718;28;20053;-80
2022/04/30 07:28:37;;;;;;;18.27;11.18;;;;;;;;;;5051645;28;20095;-81
2022/04/30 07:31:04;;;;;;;13.57;11.65;;;;;;;;;;5052061;28;20045;-83
2022/04/30 07:33:31;;;;;;;16.23;11.23;;;;;;;;;;5052154;28;20045;-85
2022/04/30 07:36:00;;;;;;;14.05;11.15;;;;;;;;;;5050501;28;20123;-89
2022/04/30 07:38:26;;;;;;;14.40;10.90;;;;;;;;;;5050403;28;20094;-75
2022/04/30 07:40:53;;;;;;;11.80;10.27;;;;;;;;;;5051744;28;20077;-84
2022/04/30 07:43:20;;;;;;;14.13;10.60;;;;;;;;;;5052333;28;20041;-81
2022/04/30 07:45:46;;;;;;;12.75;9.95;;;;;;;;;;5051596;28;20073;-84
2022/04/30 07:48:13;;;;;;;11.23;10.05;;;;;;;;;;5051794;28;20051;-85
2022/04/30 07:50:41;;;;;;;13.35;9.68;;;;;;;;;;5051381;28;20115;-80
2022/04/30 07:53:08;;;;;;;11.55;9.50;;;;;;;;;;5050171;28;20066;-83
2022/04/30 07:55:34;;;;;;;12.10;9.60;;;;;;;;;;5051633;28;20096;-82
2022/04/30 07:58:02;;;;;;;14.13;10.70;;;;;;;;;;5052027;28;20496;-81
2022/04/30 08:00:29;;;;;;;11.20;9.88;;;;;;;;;;5051295;28;20484;-86
2022/04/30 08:02:56;;;;;;;11.13;10.02;;;;;;;;;;5051974;28;20068;-84
2022/04/30 08:05:23;;;;;;;10.57;9.27;;;;;;;;;;5051996;28;20048;-77
2022/04/30 08:07:50;;;;;;;11.63;9.35;;;;;;;;;;5051619;28;20052;-74
2022/04/30 08:10:17;;;;;;;9.63;8.63;;;;;;;;;;5048201;28;20049;-85
2022/04/30 08:12:44;;;;;;;10.60;9.35;;;;;;;;;;5048382;28;20076;-86
2022/04/30 08:15:10;;;;;;;10.27;7.97;;;;;;;;;;5040697;28;20080;-84
2022/04/30 08:17:38;;;;;;;9.13;8.30;;;;;;;;;;5031369;28;20282;-88
2022/04/30 08:20:08;;;;;;;9.20;8.30;;;;;;;;;;5031174;28;20079;-87
2022/04/30 08:22:35;;;;;;;8.98;8.07;;;;;;;;;;5036021;28;20076;-87
2022/04/30 08:25:01;;;;;;;9.90;8.70;;;;;;;;;;5062228;28;20079;-87
2022/04/30 08:27:28;;;;;;;9.70;8.30;;;;;;;;;;5051722;28;20048;-84
2022/04/30 08:29:54;;;;;;;8.73;7.83;;;;;;;;;;5051628;28;20136;-80
2022/04/30 08:32:24;;;;;;;9.50;7.35;;;;;;;;;;5050934;28;20053;-85
2022/04/30 08:34:50;;;;;;;7.18;6.50;;;;;;;;;;5051856;28;20084;-82
2022/04/30 08:37:17;;;;;;;8.00;7.20;;;;;;;;;;5051283;28;20193;-83
2022/04/30 08:39:44;;;;;;;7.80;7.07;;;;;;;;;;5042453;28;20037;-79
2022/04/30 08:42:12;;;;;;;;;;;;;;;;;;5047769;28;20072;-79
2022/04/30 08:44:38;;;;;;;8.02;6.97;;;;;;;;;;5055049;28;19957;-86
2022/04/30 08:47:06;;;;;;;7.88;7.18;;;;;;;;;;5053808;28;20045;-86
2022/04/30 08:49:33;;;;;;;7.57;6.78;;;;;;;;;;5054193;28;20424;-86
2022/04/30 08:52:00;;;;;;;6.72;5.93;;;;;;;;;;5054006;28;20057;-87
2022/04/30 08:54:26;;;;;;;6.90;6.30;;;;;;;;;;5054124;28;20080;-86
2022/04/30 08:56:53;;;;;;;6.73;6.03;;;;;;;;;;5070821;28;20091;-87
2022/04/30 08:59:20;;;;;;;;;;;;;;;;;;5055598;28;20087;-86
2022/04/30 09:01:47;;;;;;;4.70;4.30;;;;;;;;;;5055080;28;20392;-86
2022/04/30 09:04:13;;;;;;;;;;;;;;;;;;5055772;28;20067;-85
2022/04/30 09:06:44;;;;;;;5.32;4.82;;;;;;;;;;5054350;28;20339;-86
2022/04/30 09:09:10;;;;;;;5.47;4.72;;;;;;;;;;5054605;28;20095;-85
2022/04/30 09:11:39;;;;;;;5.22;4.70;;;;;;;;;;5053616;28;20049;-87
2022/04/30 09:14:06;;;;;;;5.00;4.55;;;;;;;;;;5053654;28;20053;-86
2022/04/30 09:16:32;;;;;;;6.32;5.60;;;;;;;;;;5053614;28;20523;-87
2022/04/30 09:19:03;;;;;;;5.93;5.50;;;;;;;;;;5053965;28;20083;-86
2022/04/30 09:21:30;;;;;;;5.53;5.03;;;;;;;;;;5053472;28;20080;-86
2022/04/30 09:24:03;;;;;;;5.45;4.90;;;;;;;;;;5053472;28;20082;-86
2022/04/30 09:26:43;;;;;;;5.57;5.10;;;;;;;;;;5054351;28;20611;-86
2022/04/30 09:29:20;;;;;;;4.03;3.72;;;;;;;;;;5054941;28;20080;-86
2022/04/30 09:31:53;;;;;;;4.68;4.28;;;;;;;;;;5054840;28;20136;-86
2022/04/30 09:39:50;;;;;;;5.00;4.60;;;;;;;;;;5053055;28;20052;-86
2022/04/30 09:42:17;;;;;;;4.78;4.35;;;;;;;;;;5052602;28;20493;-84
2022/04/30 09:44:43;;;;;;;4.70;4.22;;;;;;;;;;5051981;28;20084;-81
2022/04/30 09:47:11;;;;;;;5.10;4.70;;;;;;;;;;5053139;28;20406;-82
2022/04/30 09:55:07;;;;;;;5.25;4.82;;;;;;;;;;5050254;28;20084;-82
2022/04/30 09:57:37;;;;;;;5.28;4.78;;;;;;;;;;5052807;28;20075;-81
2022/04/30 10:00:04;;;;;;;5.20;4.80;;;;;;;;;;5049751;28;20591;-82
2022/04/30 10:02:31;;;;;;;4.93;4.45;;;;;;;;;;5052684;28;20077;-81
2022/04/30 10:05:01;;;;;;;5.00;4.20;;;;;;;;;;5052622;28;20496;-82
2022/04/30 10:07:29;;;;;;;4.70;4.07;;;;;;;;;;5052200;28;20087;-80
2022/04/30 10:10:03;;;;;;;5.18;4.78;;;;;;;;;;5052701;28;20081;-82
2022/04/30 10:12:41;;;;;;;5.90;4.25;;;;;;;;;;5052502;28;20091;-81
2022/04/30 10:15:16;;;;;;;5.15;4.68;;;;;;;;;;5052372;28;20099;-81
2022/04/30 10:17:46;;;;;;;4.75;4.35;;;;;;;;;;5052401;28;20451;-83
2022/04/30 10:20:21;;;;;;;5.43;4.93;;;;;;;;;;5049155;28;20119;-83
2022/04/30 10:22:51;;;;;;;5.40;4.90;;;;;;;;;;5052421;28;20075;-82
2022/04/30 10:25:29;;;;;;;5.25;4.82;;;;;;;;;;5052675;28;20052;-82
2022/04/30 10:27:56;;;;;;;5.32;4.82;;;;;;;;;;5052210;28;20504;-83
2022/04/30 10:30:29;;;;;;;5.53;5.03;;;;;;;;;;5051127;28;20079;-82
2022/04/30 10:32:59;;;;;;;5.10;4.65;;;;;;;;;;5043900;28;20052;-81
2022/04/30 10:35:30;;;;;;;4.78;4.38;;;;;;;;;;5008675;28;1255907;-82
2022/04/30 10:38:09;;;;;;;6.68;5.28;;;;;;;;;;5052589;28;20048;-86
2022/04/30 10:40:45;;;;;;;5.53;5.03;;;;;;;;;;5053423;28;20169;-85
2022/04/30 10:43:15;;;;;;;5.63;5.22;;;;;;;;;;5053431;28;20103;-85
2022/04/30 10:45:41;;;;;;;5.13;4.65;;;;;;;;;;5053350;28;20444;-83
2022/04/30 10:48:09;;;;;;;5.43;4.85;;;;;;;;;;5052984;28;20083;-78
2022/04/30 10:50:35;;;;;;;5.85;5.25;;;;;;;;;;5053324;28;20045;-79
2022/04/30 10:53:02;;;;;;;6.10;5.60;;;;;;;;;;5051898;28;20045;-77
2022/04/30 10:55:28;;;;;;;;;;;;;;;;;;5053041;28;20087;-84
2022/04/30 10:57:55;;;;;;;6.93;6.22;;;;;;;;;;5053022;28;19959;-81
2022/04/30 11:00:21;;;;;;;6.63;6.03;;;;;;;;;;5051411;28;20085;-78
2022/04/30 11:02:48;;;;;;;7.18;6.40;;;;;;;;;;5046697;28;20545;-80
2022/04/30 11:05:18;;;;;;;5.93;5.43;;;;;;;;;;5044305;28;20064;-77
2022/04/30 11:07:45;;;;;;;5.90;5.35;;;;;;;;;;5050899;28;20080;-75
2022/04/30 11:10:12;;;;;;;6.05;5.45;;;;;;;;;;5051689;28;20527;-73
2022/04/30 11:12:38;;;;;;;6.38;5.70;;;;;;;;;;5051634;28;20087;-87
2022/04/30 11:15:05;;;;;;;;;;;;;;;;;;5052461;28;20083;-82
2022/04/30 11:17:41;;;;;;;5.63;5.13;;;;;;;;;;5052349;28;19970;-79
2022/04/30 11:20:24;;;;;;;5.53;5.10;;;;;;;;;;5052583;28;20040;-85
2022/04/30 11:22:54;;;;;;;5.50;5.00;;;;;;;;;;5052469;28;20094;-85
2022/04/30 11:25:21;;;;;;;5.40;5.10;;;;;;;;;;5051747;28;20504;-82
2022/04/30 11:27:47;;;;;;;;;;;;;;;;;;5047190;28;20041;-78
2022/04/30 11:30:14;;;;;;;6.22;5.35;;;;;;;;;;5051720;28;19974;-87
2022/04/30 11:32:46;;;;;;;4.78;4.43;;;;;;;;;;5052073;28;20077;-84
2022/04/30 11:35:16;;;;;;;6.03;5.53;;;;;;;;;;5049272;28;20480;-84
2022/04/30 11:37:43;;;;;;;5.65;5.20;;;;;;;;;;5051781;28;20045;-84
2022/04/30 11:40:09;;;;;;;;;;;;;;;;;;5052654;28;20092;-84
2022/04/30 11:42:36;;;;;;;;;;;;;;;;;;5052698;28;19924;-85
2022/04/30 11:45:02;;;;;;;;;;;;;;;;;;5051889;28;19921;-87
2022/04/30 11:47:28;;;;;;;5.53;5.03;;;;;;;;;;5051485;28;19964;-84
2022/04/30 11:50:02;;;;;;;5.43;4.93;;;;;;;;;;5051385;28;20140;-84
2022/04/30 11:52:29;;;;;;;5.88;5.28;;;;;;;;;;5051690;28;20048;-83
2022/04/30 11:54:55;;;;;;;5.18;4.78;;;;;;;;;;5051584;28;20076;-84
2022/04/30 11:57:22;;;;;;;5.30;4.80;;;;;;;;;;5050132;28;20132;-84
2022/04/30 11:59:48;;;;;;;;;;;;;;;;;;5051830;28;20484;-84
2022/04/30 12:02:16;;;;;;;5.13;4.72;;;;;;;;;;5051431;28;20004;-83
2022/04/30 12:04:43;;;;;;;5.82;4.88;;;;;;;;;;5052032;28;20377;-84
2022/04/30 12:07:13;;;;;;;4.88;4.47;;;;;;;;;;5051524;28;20048;-84
2022/04/30 12:09:50;;;;;;;6.43;4.15;;;;;;;;;;5051865;28;20102;-83
2022/04/30 12:12:21;;;;;;;4.50;4.10;;;;;;;;;;5051770;28;20060;-84
2022/04/30 12:14:52;;;;;;;5.03;4.53;;;;;;;;;;5051731;28;20094;-84
2022/04/30 12:17:26;;;;;;;5.32;4.93;;;;;;;;;;5051416;28;20091;-84
2022/04/30 12:25:33;;;;;;;4.70;4.40;;;;;;;;;;5039694;28;20072;-88
2022/04/30 12:28:04;;;;;;;4.63;4.22;;;;;;;;;;5050047;28;20065;-88
2022/04/30 12:30:54;;;;;;;4.95;4.55;;;;;;;;;;5051750;28;20459;-88
2022/04/30 12:33:21;;;;;;;4.47;4.10;;;;;;;;;;5051504;28;20049;-88
2022/04/30 12:35:55;;;;;;;4.32;3.92;;;;;;;;;;5051432;28;20085;-89
2022/04/30 12:38:22;;;;;;;4.57;4.18;;;;;;;;;;5051233;28;20493;-89
2022/04/30 12:40:48;;;;;;;;;;;;;;;;;;5050742;28;20084;-88
2022/04/30 12:43:16;;;;;;;4.90;4.50;;;;;;;;;;5051576;28;19924;-89
2022/04/30 12:45:43;;;;;;;5.10;4.70;;;;;;;;;;5051496;28;20468;-88
2022/04/30 12:48:10;;;;;;;4.88;4.20;;;;;;;;;;5051230;28;20077;-87
2022/04/30 12:50:37;;;;;;;4.65;4.35;;;;;;;;;;5051272;28;20049;-87
2022/04/30 12:53:09;;;;;;;5.03;4.65;;;;;;;;;;5051375;28;20139;-87
2022/04/30 12:55:38;;;;;;;5.25;4.75;;;;;;;;;;5051556;28;20122;-87
2022/04/30 12:58:04;;;;;;;5.60;5.10;;;;;;;;;;5051422;28;20079;-87
2022/04/30 13:00:33;;;;;;;4.40;4.10;;;;;;;;;;5051325;28;20461;-87
2022/04/30 13:03:02;;;;;;;5.47;5.03;;;;;;;;;;5051085;28;20497;-88
2022/04/30 13:05:29;;;;;;;4.78;4.40;;;;;;;;;;5049972;28;20053;-88
2022/04/30 13:07:55;;;;;;;5.40;5.00;;;;;;;;;;5051397;28;20073;-87
2022/04/30 13:15:53;;;;;;;5.80;5.25;;;;;;;;;;5050183;28;20088;-86
2022/04/30 13:18:19;;;;;;;6.18;5.10;;;;;;;;;;5050590;28;20421;-86
2022/04/30 13:20:45;;;;;;;5.40;4.90;;;;;;;;;;5050431;28;20133;-86
2022/04/30 13:23:12;;;;;;;5.43;4.85;;;;;;;;;;5050452;28;20159;-86
2022/04/30 13:25:38;;;;;;;5.00;4.60;;;;;;;;;;5051353;28;20084;-85
2022/04/30 13:28:06;;;;;;;5.18;4.53;;;;;;;;;;5054661;28;20076;-85
2022/04/30 13:30:32;;;;;;;;;;;;;;;;;;5054979;28;20049;-86
2022/04/30 13:32:58;;;;;;;;;;;;;;;;;;5055213;28;19991;-85
2022/04/30 13:35:25;;;;;;;;;;;;;;;;;;5055059;28;19929;-85
2022/04/30 13:37:51;;;;;;;3.60;3.30;;;;;;;;;;5053551;28;19951;-86
2022/04/30 13:40:18;;;;;;;;;;;;;;;;;;5055141;28;20409;-86
2022/04/30 13:42:44;;;;;;;;;;;;;;;;;;5055034;28;20009;-86
2022/04/30 13:45:11;;;;;;;;;;;;;;;;;;5054925;28;19963;-83
2022/04/30 13:47:38;;;;;;;4.22;3.83;;;;;;;;;;5054311;28;19925;-81
2022/04/30 13:50:05;;;;;;;4.13;3.83;;;;;;;;;;5054617;28;20081;-81
2022/04/30 13:52:32;;;;;;;4.78;3.55;;;;;;;;;;5053019;28;20147;-81
2022/04/30 13:55:00;;;;;;;3.97;3.70;;;;;;;;;;5054365;28;20041;-81
2022/04/30 13:57:26;;;;;;;3.97;3.67;;;;;;;;;;5053942;28;20049;-81
2022/04/30 13:59:53;;;;;;;;;;;;;;;;;;5054014;28;20049;-81
2022/04/30 14:02:20;;;;;;;3.90;3.60;;;;;;;;;;5054198;28;19978;-81
2022/04/30 14:04:46;;;;;;;;;;;;;;;;;;5054592;28;20472;-81
2022/04/30 14:07:13;;;;;;;;;;;;;;;;;;5054878;28;20016;-81
2022/04/30 14:09:39;;;;;;;3.90;3.60;;;;;;;;;;5054216;28;19966;-80
2022/04/30 14:12:25;;;;;;;4.30;3.88;;;;;;;;;;5053980;28;20214;-80
2022/04/30 14:14:58;;;;;;;5.25;3.85;;;;;;;;;;5054057;28;20099;-80
2022/04/30 14:20:14;;;;;;;4.07;3.67;;;;;;;;;;5053741;28;20088;-80
2022/04/30 14:22:41;;;;;;;4.07;3.65;;;;;;;;;;5053781;28;20128;-80
2022/04/30 14:25:09;;;;;;;3.30;3.10;;;;;;;;;;5053771;28;20452;-80
2022/04/30 14:27:37;;;;;;;3.17;2.97;;;;;;;;;;5053680;28;20096;-80
2022/04/30 14:30:07;;;;;;;3.00;2.80;;;;;;;;;;5053464;28;20556;-80
2022/04/30 14:32:37;;;;;;;3.20;2.78;;;;;;;;;;5053684;28;20079;-80
2022/04/30 14:35:05;;;;;;;3.08;2.88;;;;;;;;;;5039972;28;20048;-80
2022/04/30 14:37:33;;;;;;;3.83;3.15;;;;;;;;;;5052446;28;20057;-81
2022/04/30 14:40:02;;;;;;;3.10;2.90;;;;;;;;;;5053543;28;20064;-80
2022/04/30 14:42:29;;;;;;;3.15;2.95;;;;;;;;;;5053164;28;20124;-80
2022/04/30 14:44:55;;;;;;;;;;;;;;;;;;5052683;28;20153;-80
2022/04/30 14:47:21;;;;;;;3.22;2.92;;;;;;;;;;5053299;28;20007;-80
2022/04/30 14:50:04;;;;;;;3.40;3.17;;;;;;;;;;5052975;28;20053;-80
2022/04/30 14:52:30;;;;;;;3.05;2.85;;;;;;;;;;5053401;28;20573;-80
2022/04/30 14:54:56;;;;;;;2.70;2.60;;;;;;;;;;5052970;28;20053;-80
2022/04/30 14:57:23;;;;;;;3.00;2.75;;;;;;;;;;5053268;28;20048;-80
2022/04/30 14:59:50;;;;;;;2.70;2.53;;;;;;;;;;5052763;28;20057;-80
2022/04/30 15:02:16;;;;;;;3.55;3.25;;;;;;;;;;5053310;28;20118;-80
2022/04/30 15:04:43;;;;;;;2.90;2.70;;;;;;;;;;5053106;28;20444;-79
2022/04/30 15:07:10;;;;;;;2.70;2.50;;;;;;;;;;5052865;28;20106;-78
2022/04/30 15:09:36;;;;;;;3.80;2.92;;;;;;;;;;5052708;28;20103;-79
2022/04/30 15:12:03;;;;;;;3.05;2.85;;;;;;;;;;5051250;28;20085;-78
2022/04/30 15:14:29;;;;;;;2.50;2.30;;;;;;;;;;5051073;28;20118;-72
2022/04/30 15:16:56;;;;;;;2.03;1.90;;;;;;;;;;5052328;28;20103;-72
2022/04/30 15:19:22;;;;;;;2.60;2.40;;;;;;;;;;5052312;28;20135;-72
2022/04/30 15:21:49;;;;;;;2.90;2.60;;;;;;;;;;5052159;28;20127;-76
2022/04/30 15:24:20;;;;;;;2.30;2.15;;;;;;;;;;5051913;28;20044;-76
2022/04/30 15:26:47;;;;;;;14.35;3.63;;;;;;;;;;5051931;28;20048;-77
2022/04/30 15:29:14;;;;;;;2.85;2.65;;;;;;;;;;5052037;28;20142;-77
2022/04/30 15:31:41;;;;;;;3.13;2.83;;;;;;;;;;5051998;28;20080;-76
2022/04/30 15:34:08;;;;;;;4.90;4.43;;;;;;;;;;5052560;28;20044;-80
2022/04/30 15:36:37;;;;;;;3.20;3.00;;;;;;;;;;5041045;28;20048;-79
2022/04/30 15:39:03;;;;;;;3.70;3.40;;;;;;;;;;5038252;28;20519;-81
2022/04/30 15:41:30;;;;;;;3.67;3.38;;;;;;;;;;5052313;28;20080;-81